Time;durP1;ratioP1;P1;durP2;ratioP2;P2;SDS_P1;SDS_P2;PMS_P1;PMS_P2;Temp;Humidity;BMP_temperature;BMP_pressure;BME280_temperature;BME280_humidity;BME280_pressure;Samples;Min_cycle;Max_cycle;Signal;HPM_P1;HPM_P2
2021/12/01 00:02:24;;;;;;;95.43;43.78;;;3.60;96.80;;;;;;5084643;28;20404;-71
2021/12/01 00:04:50;;;;;;;93.05;44.15;;;3.60;96.50;;;;;;5082855;28;20036;-71
2021/12/01 00:07:16;;;;;;;100.88;44.22;;;3.70;95.80;;;;;;5063739;28;20039;-71
2021/12/01 00:09:42;;;;;;;99.57;44.58;;;3.70;96.00;;;;;;5081401;28;20031;-71
2021/12/01 00:12:08;;;;;;;100.95;44.25;;;3.90;95.70;;;;;;5082559;28;20101;-71
2021/12/01 00:14:33;;;;;;;106.32;46.58;;;3.90;95.80;;;;;;5081607;28;20035;-71
2021/12/01 00:16:59;;;;;;;120.68;51.83;;;3.90;95.60;;;;;;5084510;28;20101;-71
2021/12/01 00:19:25;;;;;;;130.68;55.55;;;4.00;95.40;;;;;;5081204;28;20036;-71
2021/12/01 00:21:51;;;;;;;123.78;52.90;;;4.10;95.40;;;;;;5081570;28;20062;-71
2021/12/01 00:24:16;;;;;;;115.57;50.70;;;4.20;95.30;;;;;;5078580;28;20440;-71
2021/12/01 00:26:42;;;;;;;106.80;47.70;;;4.30;95.00;;;;;;5075507;28;20023;-71
2021/12/01 00:29:08;;;;;;;105.10;50.67;;;4.40;94.70;;;;;;5080757;28;20181;-70
2021/12/01 00:31:34;;;;;;;128.18;52.25;;;4.50;94.40;;;;;;5078523;28;20140;-71
2021/12/01 00:34:01;;;;;;;109.03;49.20;;;4.50;94.50;;;;;;5058367;28;20044;-71
2021/12/01 00:36:28;;;;;;;106.28;47.30;;;4.30;94.70;;;;;;5077029;28;20036;-70
2021/12/01 00:38:54;;;;;;;116.05;48.90;;;4.10;95.80;;;;;;5080441;28;20047;-73
2021/12/01 00:41:21;;;;;;;108.15;47.70;;;3.90;96.80;;;;;;5081818;28;20052;-71
2021/12/01 00:43:46;;;;;;;113.82;48.22;;;3.80;97.40;;;;;;5077279;28;20031;-71
2021/12/01 00:46:14;;;;;;;107.95;47.05;;;3.80;97.10;;;;;;5077145;28;20055;-71
2021/12/01 00:48:40;;;;;;;101.28;46.65;;;3.80;97.10;;;;;;5074747;28;20100;-71
2021/12/01 00:51:07;;;;;;;122.93;51.20;;;3.70;97.30;;;;;;5078009;28;20048;-71
2021/12/01 00:53:33;;;;;;;144.45;53.72;;;3.70;97.60;;;;;;5082199;28;20447;-71
2021/12/01 00:55:58;;;;;;;115.50;46.55;;;3.50;97.60;;;;;;5079613;28;20154;-71
2021/12/01 00:58:24;;;;;;;118.78;47.13;;;3.20;98.30;;;;;;5080169;28;20188;-71
2021/12/01 01:00:50;;;;;;;103.95;43.92;;;2.70;99.80;;;;;;5062821;28;20040;-71
2021/12/01 01:03:17;;;;;;;98.18;38.88;;;2.60;99.90;;;;;;5082151;28;20085;-70
2021/12/01 01:05:42;;;;;;;93.43;38.60;;;2.70;98.90;;;;;;5090042;28;20043;-71
2021/12/01 01:08:08;;;;;;;94.32;40.22;;;2.90;98.30;;;;;;5086944;28;20565;-71
2021/12/01 01:18:37;;;;;;;70.68;29.63;;;3.20;96.40;;;;;;5086222;28;20549;-70
2021/12/01 01:21:05;;;;;;;69.85;30.27;;;3.30;95.10;;;;;;5090658;28;20039;-70
2021/12/01 01:23:31;;;;;;;54.58;26.55;;;3.40;94.90;;;;;;5087741;28;20464;-71
2021/12/01 01:25:58;;;;;;;63.80;29.15;;;3.60;93.40;;;;;;5089175;28;20063;-70
2021/12/01 01:28:25;;;;;;;60.00;25.70;;;3.60;93.60;;;;;;5088042;28;20024;-71
2021/12/01 01:30:52;;;;;;;60.60;27.95;;;3.70;93.00;;;;;;5084427;28;20036;-71
2021/12/01 01:33:18;;;;;;;54.75;25.92;;;3.80;92.90;;;;;;5088676;28;20122;-71
2021/12/01 01:35:44;;;;;;;57.10;27.05;;;3.70;92.50;;;;;;5070524;28;20127;-71
2021/12/01 01:38:10;;;;;;;57.80;26.25;;;3.60;93.10;;;;;;5089330;28;20028;-71
2021/12/01 01:40:37;;;;;;;47.17;22.98;;;3.50;93.20;;;;;;5088247;28;20094;-71
2021/12/01 01:43:04;;;;;;;49.85;22.23;;;3.40;93.00;;;;;;5089756;28;20051;-71
2021/12/01 01:45:29;;;;;;;42.72;21.55;;;3.50;92.60;;;;;;5089640;28;20028;-71
2021/12/01 01:48:03;;;;;;;44.63;20.65;;;3.60;92.30;;;;;;5089826;28;20380;-71
2021/12/01 01:50:37;;;;;;;41.90;20.98;;;3.60;92.10;;;;;;5089621;28;20071;-71
2021/12/01 01:53:11;;;;;;;39.58;20.92;;;3.60;92.00;;;;;;5090618;28;20550;-71
2021/12/01 01:55:44;;;;;;;33.78;15.23;;;3.60;91.80;;;;;;5090999;28;20028;-71
2021/12/01 01:58:10;;;;;;;31.23;16.00;;;3.70;90.70;;;;;;5093147;28;20032;-71
2021/12/01 02:00:46;;;;;;;32.10;16.02;;;3.80;91.70;;;;;;5093127;28;20035;-71
2021/12/01 02:03:14;;;;;;;35.25;15.65;;;3.90;90.10;;;;;;5093053;28;20107;-71
2021/12/01 02:05:40;;;;;;;33.80;14.70;;;4.00;89.30;;;;;;5092910;28;20028;-71
2021/12/01 02:08:14;;;;;;;32.72;14.32;;;4.10;90.70;;;;;;5090762;28;20036;-71
2021/12/01 02:10:41;;;;;;;30.08;14.82;;;4.10;90.00;;;;;;5094055;28;20027;-71
2021/12/01 02:13:07;;;;;;;23.67;12.52;;;4.10;89.20;;;;;;5074258;28;20036;-71
2021/12/01 02:15:33;;;;;;;24.85;12.88;;;4.10;89.70;;;;;;5092313;28;20027;-71
2021/12/01 02:17:58;;;;;;;21.48;11.63;;;4.20;87.50;;;;;;5092550;28;20052;-71
2021/12/01 02:20:24;;;;;;;20.55;10.25;;;4.20;86.90;;;;;;5093482;28;20039;-71
2021/12/01 02:22:50;;;;;;;20.60;10.45;;;4.30;85.50;;;;;;5093466;28;20092;-71
2021/12/01 02:25:15;;;;;;;21.08;9.55;;;4.40;85.00;;;;;;5091895;28;20499;-71
2021/12/01 02:27:41;;;;;;;20.00;9.30;;;4.40;84.10;;;;;;5092553;28;20154;-71
2021/12/01 02:30:08;;;;;;;18.27;9.07;;;4.40;84.90;;;;;;5092454;28;20028;-71
2021/12/01 02:32:34;;;;;;;19.58;9.15;;;4.30;85.30;;;;;;5091859;28;20033;-71
2021/12/01 02:35:00;;;;;;;21.92;9.57;;;4.20;86.30;;;;;;5094806;28;20547;-71
2021/12/01 02:37:26;;;;;;;24.27;10.65;;;4.10;88.30;;;;;;5091787;28;20036;-71
2021/12/01 02:39:52;;;;;;;32.33;13.05;;;4.00;90.50;;;;;;5091498;28;20093;-71
2021/12/01 02:42:20;;;;;;;23.38;9.65;;;4.00;87.00;;;;;;5091125;28;20039;-71
2021/12/01 02:44:46;;;;;;;19.98;8.02;;;4.10;86.40;;;;;;5090781;28;20115;-70
2021/12/01 02:47:12;;;;;;;17.02;9.00;;;4.00;87.10;;;;;;5094075;28;20024;-71
2021/12/01 02:49:38;;;;;;;20.40;8.25;;;4.00;86.50;;;;;;5092122;28;20039;-70
2021/12/01 02:52:04;;;;;;;17.77;8.55;;;3.90;86.80;;;;;;5090247;28;20044;-71
2021/12/01 02:54:30;;;;;;;22.27;9.85;;;3.90;90.70;;;;;;5090636;28;20556;-71
2021/12/01 02:56:57;;;;;;;19.90;8.90;;;3.80;90.40;;;;;;5091522;28;20047;-71
2021/12/01 02:59:23;;;;;;;18.00;8.40;;;3.80;88.00;;;;;;5091519;28;20028;-70
2021/12/01 03:01:50;;;;;;;14.88;7.85;;;3.90;88.70;;;;;;5091893;28;20032;-71
2021/12/01 03:04:16;;;;;;;26.77;11.93;;;3.90;89.20;;;;;;5090768;28;20040;-70
2021/12/01 03:06:48;;;;;;;26.02;11.95;;;3.80;88.70;;;;;;5090109;28;20450;-71
2021/12/01 03:09:14;;;;;;;22.75;9.73;;;3.80;90.50;;;;;;5090613;28;20111;-71
2021/12/01 03:11:42;;;;;;;20.05;11.82;;;3.90;85.50;;;;;;5090598;28;20115;-70
2021/12/01 03:14:14;;;;;;;20.83;10.60;;;4.00;86.30;;;;;;5089715;28;20076;-70
2021/12/01 03:16:39;;;;;;;21.90;9.15;;;4.00;86.80;;;;;;5091171;28;20445;-71
2021/12/01 03:19:05;;;;;;;17.35;8.93;;;4.00;87.00;;;;;;5086539;28;20111;-71
2021/12/01 03:21:35;;;;;;;18.40;9.40;;;4.00;86.00;;;;;;5089802;28;20542;-71
2021/12/01 03:24:01;;;;;;;21.35;10.40;;;4.10;85.50;;;;;;5089958;28;20032;-70
2021/12/01 03:26:29;;;;;;;19.25;10.18;;;4.10;86.70;;;;;;5092063;28;20161;-71
2021/12/01 03:28:55;;;;;;;19.60;9.00;;;4.10;86.60;;;;;;5092509;28;20503;-71
2021/12/01 03:31:20;;;;;;;21.92;10.25;;;4.00;88.10;;;;;;5089845;28;20032;-71
2021/12/01 03:33:46;;;;;;;23.00;9.82;;;4.00;87.60;;;;;;5089626;28;20031;-71
2021/12/01 03:36:12;;;;;;;18.02;9.05;;;4.00;87.30;;;;;;5089486;28;20028;-70
2021/12/01 03:38:37;;;;;;;13.73;8.68;;;4.10;87.60;;;;;;5086085;28;20454;-71
2021/12/01 03:41:03;;;;;;;20.08;9.05;;;4.10;89.00;;;;;;5092986;28;20508;-70
2021/12/01 03:43:29;;;;;;;13.30;7.78;;;4.10;88.20;;;;;;5089297;28;20140;-71
2021/12/01 03:45:55;;;;;;;20.02;8.60;;;4.10;88.20;;;;;;5089255;28;20028;-71
2021/12/01 03:48:22;;;;;;;13.43;7.80;;;4.10;88.40;;;;;;5089634;28;20074;-71
2021/12/01 03:50:50;;;;;;;15.90;7.95;;;4.20;87.10;;;;;;5089209;28;20070;-71
2021/12/01 03:53:20;;;;;;;16.05;7.18;;;4.20;86.80;;;;;;5092021;28;20491;-71
2021/12/01 03:55:46;;;;;;;14.15;7.25;;;4.20;88.60;;;;;;5091955;28;20433;-71
2021/12/01 03:58:12;;;;;;;15.73;7.88;;;4.20;86.50;;;;;;5088425;28;20032;-71
2021/12/01 04:00:39;;;;;;;16.52;7.10;;;4.30;87.40;;;;;;5071204;28;20416;-70
2021/12/01 04:03:05;;;;;;;18.58;7.22;;;4.30;87.60;;;;;;5089478;28;20488;-70
2021/12/01 04:05:31;;;;;;;13.93;7.45;;;4.30;88.60;;;;;;5090067;28;20058;-70
2021/12/01 04:07:57;;;;;;;15.65;7.95;;;4.30;88.50;;;;;;5091062;28;20073;-70
2021/12/01 04:10:23;;;;;;;14.27;6.50;;;4.20;86.20;;;;;;5088981;28;20430;-70
2021/12/01 04:12:49;;;;;;;12.48;6.50;;;4.30;85.50;;;;;;5088502;28;20039;-70
2021/12/01 04:15:15;;;;;;;15.80;6.53;;;4.30;86.00;;;;;;5070493;28;20042;-70
2021/12/01 04:17:43;;;;;;;11.60;6.88;;;4.30;84.60;;;;;;5086950;28;20065;-71
2021/12/01 04:20:11;;;;;;;14.63;6.28;;;4.40;84.60;;;;;;5091193;28;20040;-71
2021/12/01 04:22:38;;;;;;;13.45;6.35;;;4.40;86.30;;;;;;5088382;28;20135;-70
2021/12/01 04:25:04;;;;;;;15.10;6.13;;;4.30;87.30;;;;;;5088344;28;20034;-70
2021/12/01 04:27:31;;;;;;;15.50;6.32;;;4.20;87.20;;;;;;5088430;28;20020;-70
2021/12/01 04:29:56;;;;;;;12.52;6.28;;;4.20;87.60;;;;;;5088826;28;20036;-70
2021/12/01 04:32:22;;;;;;;14.23;6.90;;;4.20;89.50;;;;;;5090813;28;20032;-71
2021/12/01 04:34:48;;;;;;;17.05;7.03;;;4.30;86.80;;;;;;5088772;28;20107;-70
2021/12/01 04:37:14;;;;;;;12.93;6.68;;;4.30;87.40;;;;;;5088071;28;20046;-70
2021/12/01 04:39:40;;;;;;;13.23;6.93;;;4.30;87.30;;;;;;5086972;28;20461;-71
2021/12/01 04:42:06;;;;;;;12.25;7.05;;;4.20;87.60;;;;;;5088684;28;20118;-71
2021/12/01 04:44:34;;;;;;;18.02;6.95;;;4.20;88.40;;;;;;5089543;28;20030;-71
2021/12/01 04:47:02;;;;;;;14.75;6.93;;;4.20;87.90;;;;;;5091083;28;20031;-71
2021/12/01 04:49:30;;;;;;;16.63;6.70;;;4.20;88.20;;;;;;5088098;28;20036;-70
2021/12/01 04:51:58;;;;;;;15.38;6.53;;;4.00;88.60;;;;;;5088436;28;20039;-71
2021/12/01 04:54:25;;;;;;;19.70;7.32;;;3.90;89.40;;;;;;5087895;28;20322;-70
2021/12/01 04:56:52;;;;;;;11.88;6.15;;;3.80;90.40;;;;;;5088467;28;20484;-70
2021/12/01 04:59:19;;;;;;;12.68;6.38;;;3.80;91.20;;;;;;5090631;28;20134;-70
2021/12/01 05:01:45;;;;;;;13.93;8.95;;;3.80;91.50;;;;;;5089963;28;20425;-70
2021/12/01 05:04:11;;;;;;;16.67;6.72;;;3.90;90.00;;;;;;5087579;28;20070;-70
2021/12/01 05:06:41;;;;;;;16.75;6.13;;;4.00;88.70;;;;;;5088154;28;20510;-70
2021/12/01 05:09:08;;;;;;;16.17;6.55;;;4.10;90.50;;;;;;5088180;28;20035;-70
2021/12/01 05:11:34;;;;;;;13.82;6.03;;;4.00;90.00;;;;;;5089798;28;20496;-71
2021/12/01 05:14:00;;;;;;;13.00;7.15;;;4.00;90.50;;;;;;5089660;28;20055;-71
2021/12/01 05:16:25;;;;;;;15.88;7.60;;;4.10;91.00;;;;;;5088540;28;20085;-70
2021/12/01 05:18:51;;;;;;;13.50;6.50;;;3.80;92.30;;;;;;5087743;28;20081;-71
2021/12/01 05:21:17;;;;;;;18.17;7.43;;;3.40;93.60;;;;;;5087791;28;20036;-71
2021/12/01 05:23:43;;;;;;;28.08;10.35;;;3.20;94.80;;;;;;5087999;28;20853;-70
2021/12/01 05:26:10;;;;;;;32.05;12.43;;;3.10;95.60;;;;;;5091627;28;20044;-71
2021/12/01 05:28:38;;;;;;;35.00;13.75;;;2.90;96.30;;;;;;5089714;28;20031;-71
2021/12/01 05:31:03;;;;;;;30.83;14.93;;;2.70;96.80;;;;;;5090803;28;20028;-70
2021/12/01 05:33:29;;;;;;;38.30;19.05;;;2.60;97.30;;;;;;5091044;28;20048;-71
2021/12/01 05:35:55;;;;;;;41.83;17.33;;;2.50;98.30;;;;;;5092202;28;20035;-71
2021/12/01 05:38:21;;;;;;;32.70;16.63;;;2.60;98.50;;;;;;5094481;28;20484;-70
2021/12/01 05:40:49;;;;;;;34.78;16.98;;;2.60;98.50;;;;;;5093607;28;20063;-70
2021/12/01 05:43:16;;;;;;;46.67;20.92;;;2.50;98.60;;;;;;5091819;28;20043;-71
2021/12/01 05:45:41;;;;;;;37.83;17.67;;;2.40;98.50;;;;;;5091979;28;20024;-71
2021/12/01 05:48:07;;;;;;;29.95;15.10;;;2.30;99.20;;;;;;5091386;28;20073;-71
2021/12/01 05:50:33;;;;;;;28.92;14.73;;;2.40;99.00;;;;;;5093394;28;20500;-70
2021/12/01 05:52:59;;;;;;;25.42;12.18;;;2.60;98.30;;;;;;5094287;28;20032;-70
2021/12/01 05:55:24;;;;;;;30.05;12.73;;;2.80;97.80;;;;;;5091703;28;20020;-70
2021/12/01 05:57:50;;;;;;;31.00;13.38;;;2.80;98.40;;;;;;5091907;28;20451;-70
2021/12/01 06:00:16;;;;;;;27.67;13.07;;;2.60;98.50;;;;;;5091688;28;20077;-72
2021/12/01 06:02:43;;;;;;;30.17;14.30;;;2.60;98.60;;;;;;5091287;28;20024;-68
2021/12/01 06:05:09;;;;;;;29.45;13.65;;;2.60;99.20;;;;;;5094729;28;20304;-68
2021/12/01 06:07:35;;;;;;;27.60;11.75;;;2.60;98.90;;;;;;5089715;28;20118;-68
2021/12/01 06:10:02;;;;;;;29.52;13.02;;;2.70;98.70;;;;;;5091549;28;20542;-68
2021/12/01 06:12:32;;;;;;;23.75;10.85;;;2.70;98.90;;;;;;5091225;28;20036;-70
2021/12/01 06:14:59;;;;;;;22.00;10.18;;;2.60;98.10;;;;;;5091515;28;20033;-68
2021/12/01 06:17:25;;;;;;;22.90;8.65;;;2.50;98.60;;;;;;5093384;28;20076;-70
2021/12/01 06:19:53;;;;;;;14.23;7.20;;;2.80;98.20;;;;;;5092634;28;20073;-70
2021/12/01 06:22:18;;;;;;;18.05;7.03;;;3.00;97.40;;;;;;5090416;28;20114;-68
2021/12/01 06:24:45;;;;;;;18.42;8.45;;;3.30;96.50;;;;;;5090596;28;20162;-68
2021/12/01 06:27:11;;;;;;;20.60;8.27;;;3.50;95.80;;;;;;5091308;28;20031;-68
2021/12/01 06:29:37;;;;;;;15.07;7.60;;;3.60;95.50;;;;;;5091414;28;20028;-68
2021/12/01 06:32:04;;;;;;;25.70;10.40;;;3.60;96.50;;;;;;5093100;28;20035;-69
2021/12/01 06:34:29;;;;;;;40.28;19.05;;;3.30;97.00;;;;;;5091077;28;20032;-70
2021/12/01 06:36:55;;;;;;;54.30;24.45;;;3.00;98.00;;;;;;5088815;28;20032;-71
2021/12/01 06:39:21;;;;;;;68.18;27.55;;;2.60;99.10;;;;;;5090742;28;20032;-69
2021/12/01 06:41:47;;;;;;;66.95;28.10;;;2.30;99.70;;;;;;5090887;28;20495;-71
2021/12/01 06:44:13;;;;;;;78.25;29.75;;;2.20;99.90;;;;;;5090849;28;20028;-69
2021/12/01 06:46:39;;;;;;;73.68;27.85;;;2.10;99.90;;;;;;5090928;28;20028;-68
2021/12/01 06:49:04;;;;;;;48.35;19.20;;;2.10;99.90;;;;;;5072207;28;20028;-68
2021/12/01 06:51:30;;;;;;;48.50;22.05;;;2.30;99.90;;;;;;5091207;28;20047;-67
2021/12/01 06:53:56;;;;;;;45.90;21.30;;;2.40;99.90;;;;;;5087747;28;20496;-67
2021/12/01 06:56:22;;;;;;;45.67;22.42;;;2.50;99.90;;;;;;5083973;28;20052;-67
2021/12/01 06:58:48;;;;;;;47.13;21.17;;;2.70;99.10;;;;;;5082033;28;20708;-67
2021/12/01 07:01:14;;;;;;;55.53;22.33;;;2.70;99.10;;;;;;5081793;28;20070;-68
2021/12/01 07:03:40;;;;;;;63.05;33.40;;;3.00;98.00;;;;;;5086616;28;20032;-68
2021/12/01 07:06:06;;;;;;;80.90;42.72;;;3.10;97.50;;;;;;5086088;28;20089;-68
2021/12/01 07:08:32;;;;;;;42.30;21.67;;;3.30;97.30;;;;;;5087531;28;20036;-68
2021/12/01 07:10:58;;;;;;;27.98;13.90;;;3.50;97.00;;;;;;5084703;28;20050;-69
2021/12/01 07:13:24;;;;;;;29.17;15.77;;;3.70;96.90;;;;;;5078895;28;20040;-69
2021/12/01 07:15:49;;;;;;;31.05;18.15;;;3.80;96.80;;;;;;5082599;28;20031;-69
2021/12/01 07:18:15;;;;;;;31.70;16.83;;;3.80;97.40;;;;;;5083100;28;20373;-70
2021/12/01 07:20:45;;;;;;;29.67;19.33;;;3.60;97.50;;;;;;5083283;28;20047;-70
2021/12/01 07:23:11;;;;;;;39.45;20.38;;;3.50;98.10;;;;;;5080095;28;20024;-72
2021/12/01 07:25:37;;;;;;;38.83;21.38;;;3.30;98.70;;;;;;5085127;28;20032;-71
2021/12/01 07:28:03;;;;;;;66.38;30.10;;;3.30;99.50;;;;;;5089385;28;20119;-71
2021/12/01 07:30:29;;;;;;;79.60;32.35;;;3.10;99.20;;;;;;5090406;28;20026;-70
2021/12/01 07:32:54;;;;;;;74.03;31.00;;;2.90;99.50;;;;;;5089822;28;20039;-69
2021/12/01 07:35:20;;;;;;;50.17;26.48;;;3.00;99.70;;;;;;5092539;28;20373;-70
2021/12/01 07:37:49;;;;;;;57.38;26.65;;;3.20;99.40;;;;;;5091013;28;20020;-70
2021/12/01 07:40:15;;;;;;;58.95;33.58;;;3.40;99.00;;;;;;5072385;28;20407;-70
2021/12/01 07:42:41;;;;;;;60.55;30.65;;;3.50;98.90;;;;;;5081597;28;20035;-70
2021/12/01 07:45:07;;;;;;;54.13;29.75;;;3.80;98.90;;;;;;5088715;28;20020;-70
2021/12/01 07:47:33;;;;;;;53.53;29.98;;;3.90;99.10;;;;;;5090345;28;20024;-69
2021/12/01 07:49:59;;;;;;;50.72;27.17;;;3.90;98.90;;;;;;5091218;28;20480;-69
2021/12/01 07:52:24;;;;;;;44.35;25.52;;;4.00;98.20;;;;;;5088828;28;20039;-69
2021/12/01 07:54:50;;;;;;;60.40;32.15;;;3.80;98.50;;;;;;5088227;28;20036;-69
2021/12/01 07:57:16;;;;;;;53.70;31.10;;;3.60;98.30;;;;;;5086593;28;20063;-70
2021/12/01 07:59:42;;;;;;;62.65;32.40;;;3.50;98.50;;;;;;5091890;28;20058;-69
2021/12/01 08:02:08;;;;;;;52.85;30.17;;;3.50;98.00;;;;;;5088794;28;20055;-72
2021/12/01 08:04:33;;;;;;;54.45;31.50;;;3.50;99.20;;;;;;5085715;28;20039;-68
2021/12/01 08:07:00;;;;;;;53.33;31.83;;;3.70;98.60;;;;;;5086820;28;20035;-73
2021/12/01 08:09:27;;;;;;;53.33;29.80;;;3.60;98.50;;;;;;5086376;28;20040;-74
2021/12/01 08:11:54;;;;;;;56.97;31.75;;;3.70;99.00;;;;;;5090202;28;20089;-74
2021/12/01 08:14:20;;;;;;;65.93;38.20;;;3.80;98.80;;;;;;5087550;28;20036;-72
2021/12/01 08:16:47;;;;;;;68.10;39.72;;;3.80;98.80;;;;;;5087028;28;20040;-71
2021/12/01 08:19:12;;;;;;;62.35;37.85;;;3.90;98.60;;;;;;5086193;28;20050;-69
2021/12/01 08:21:38;;;;;;;67.75;40.67;;;3.90;98.80;;;;;;5078051;28;20507;-71
2021/12/01 08:24:04;;;;;;;71.05;39.40;;;3.90;98.30;;;;;;5091425;28;20027;-71
2021/12/01 08:26:30;;;;;;;65.28;37.30;;;3.90;99.00;;;;;;5090307;28;20115;-71
2021/12/01 08:28:56;;;;;;;64.75;36.95;;;4.20;99.10;;;;;;5103761;28;20024;-72
2021/12/01 08:31:23;;;;;;;61.80;35.97;;;4.30;98.70;;;;;;5090899;28;20046;-73
2021/12/01 08:33:49;;;;;;;64.55;36.92;;;4.50;98.50;;;;;;5091349;28;20028;-72
2021/12/01 08:36:15;;;;;;;68.80;36.47;;;4.80;97.70;;;;;;5091149;28;20035;-72
2021/12/01 08:38:42;;;;;;;57.90;34.10;;;4.90;97.50;;;;;;5091305;28;20043;-71
2021/12/01 08:41:08;;;;;;;57.20;32.83;;;4.90;96.70;;;;;;5088075;28;20043;-78
2021/12/01 08:43:35;;;;;;;58.45;34.83;;;4.80;96.80;;;;;;5091125;28;20024;-73
2021/12/01 08:46:02;;;;;;;61.50;35.10;;;5.00;96.80;;;;;;5091304;28;20515;-73
2021/12/01 08:48:28;;;;;;;59.20;34.00;;;5.10;96.70;;;;;;5091068;28;20031;-73
2021/12/01 08:50:56;;;;;;;53.88;32.63;;;5.20;97.30;;;;;;5091549;28;20036;-73
2021/12/01 08:53:22;;;;;;;63.47;33.90;;;5.40;97.40;;;;;;5091417;28;20040;-73
2021/12/01 08:55:48;;;;;;;57.75;35.05;;;5.70;96.60;;;;;;5091941;28;20028;-73
2021/12/01 08:58:14;;;;;;;59.47;33.95;;;5.90;95.90;;;;;;5091101;28;20140;-73
2021/12/01 09:00:44;;;;;;;54.53;33.42;;;6.10;95.80;;;;;;5090624;28;20032;-73
2021/12/01 09:03:14;;;;;;;57.90;35.38;;;6.40;95.50;;;;;;5090532;28;20394;-73
2021/12/01 09:05:41;;;;;;;61.45;35.83;;;6.30;95.00;;;;;;5089098;28;20555;-73
2021/12/01 09:08:07;;;;;;;51.70;34.22;;;6.00;95.80;;;;;;5087704;28;20077;-74
2021/12/01 09:10:35;;;;;;;61.95;36.00;;;5.90;97.00;;;;;;5072385;28;20055;-73
2021/12/01 09:13:01;;;;;;;66.97;37.72;;;5.70;97.70;;;;;;5090242;28;20036;-73
2021/12/01 09:15:27;;;;;;;63.25;38.45;;;5.80;98.40;;;;;;5090722;28;20035;-73
2021/12/01 09:17:53;;;;;;;61.40;37.42;;;5.90;98.60;;;;;;5089921;28;20034;-73
2021/12/01 09:20:19;;;;;;;64.00;35.50;;;5.90;99.20;;;;;;5091110;28;20095;-73
2021/12/01 09:22:45;;;;;;;65.63;34.85;;;6.10;99.10;;;;;;5091005;28;20081;-73
2021/12/01 09:25:12;;;;;;;67.22;34.65;;;6.20;98.70;;;;;;5090097;28;20028;-73
2021/12/01 09:27:38;;;;;;;56.50;33.28;;;6.30;98.80;;;;;;5090225;28;20024;-73
2021/12/01 09:30:05;;;;;;;79.35;35.38;;;6.20;98.40;;;;;;5090205;28;20032;-73
2021/12/01 09:32:34;;;;;;;66.55;37.63;;;6.30;99.10;;;;;;5089596;28;20115;-72
2021/12/01 09:35:01;;;;;;;82.15;39.83;;;6.20;98.60;;;;;;5090800;28;20032;-72
2021/12/01 09:37:27;;;;;;;72.03;42.92;;;6.20;99.70;;;;;;5089298;28;20492;-73
2021/12/01 09:39:52;;;;;;;77.63;42.10;;;6.40;99.60;;;;;;5061059;28;20049;-73
2021/12/01 09:42:19;;;;;;;80.45;43.85;;;6.30;99.00;;;;;;5048959;28;20028;-72
2021/12/01 09:44:45;;;;;;;74.07;43.00;;;6.40;99.30;;;;;;5049356;28;20054;-72
2021/12/01 09:47:11;;;;;;;77.82;44.75;;;6.60;99.40;;;;;;5051210;28;20035;-72
2021/12/01 09:49:37;;;;;;;68.70;41.40;;;6.80;98.10;;;;;;5049731;28;20033;-73
2021/12/01 09:52:03;;;;;;;74.32;40.55;;;6.80;98.40;;;;;;5049001;28;20045;-73
2021/12/01 09:54:29;;;;;;;74.28;40.80;;;6.80;98.40;;;;;;5048693;28;20029;-73
2021/12/01 09:56:55;;;;;;;76.93;40.28;;;6.80;99.00;;;;;;5048920;28;20037;-73
2021/12/01 09:59:20;;;;;;;76.93;40.58;;;6.90;99.00;;;;;;5050051;28;20104;-72
2021/12/01 10:01:46;;;;;;;85.78;40.63;;;7.00;99.10;;;;;;5050117;28;20059;-73
2021/12/01 10:04:12;;;;;;;81.28;40.28;;;7.00;99.10;;;;;;5047181;28;20451;-61
2021/12/01 10:06:38;;;;;;;85.53;40.55;;;7.10;99.50;;;;;;5047563;28;20025;-61
2021/12/01 10:09:07;;;;;;;80.32;38.72;;;7.10;99.60;;;;;;5047385;28;20033;-61
2021/12/01 10:11:34;;;;;;;74.07;39.50;;;7.20;99.60;;;;;;5049323;28;20491;-62
2021/12/01 10:14:06;;;;;;;70.88;34.70;;;7.30;99.90;;;;;;5047657;28;20103;-61
2021/12/01 10:16:37;;;;;;;67.68;36.42;;;7.50;99.90;;;;;;5044260;28;20068;-61
2021/12/01 10:19:12;;;;;;;64.30;35.08;;;7.60;99.70;;;;;;5043993;28;20025;-61
2021/12/01 10:21:45;;;;;;;65.03;35.63;;;7.80;99.40;;;;;;5044718;28;20569;-61
2021/12/01 10:24:20;;;;;;;67.05;36.80;;;8.00;99.30;;;;;;5041172;28;20067;-61
2021/12/01 10:26:50;;;;;;;66.75;35.95;;;8.00;99.50;;;;;;5049374;28;20496;-61
2021/12/01 10:29:19;;;;;;;87.80;40.08;;;8.00;99.50;;;;;;5046251;28;20082;-61
2021/12/01 10:31:48;;;;;;;74.20;37.83;;;8.20;99.90;;;;;;5046507;28;20132;-63
2021/12/01 10:34:29;;;;;;;81.07;37.85;;;8.20;99.50;;;;;;5056765;23;20053;-71
2021/12/01 10:37:15;;;;;;;73.85;38.28;;;8.30;99.00;;;;;;5046139;28;20045;-70
2021/12/01 10:39:48;;;;;;;69.00;39.30;;;8.40;98.70;;;;;;5045439;28;20025;-70
2021/12/01 10:42:16;;;;;;;65.05;37.65;;;8.50;98.10;;;;;;5053050;28;20065;-70
2021/12/01 10:45:00;;;;;;;71.43;36.55;;;8.70;97.90;;;;;;5037334;28;20512;-71
2021/12/01 10:47:35;;;;;;;76.67;39.77;;;8.70;98.50;;;;;;5051048;28;20417;-70
2021/12/01 10:50:03;;;;;;;76.88;43.30;;;8.80;98.70;;;;;;5052922;28;20024;-70
2021/12/01 10:52:35;;;;;;;70.22;43.60;;;8.70;99.30;;;;;;5052104;28;20063;-71
2021/12/01 10:55:02;;;;;;;71.95;43.88;;;8.50;99.90;;;;;;5046562;28;20029;-71
2021/12/01 10:57:28;;;;;;;70.93;40.47;;;8.60;99.90;;;;;;5043560;28;20024;-70
2021/12/01 10:59:53;;;;;;;65.15;39.20;;;8.60;99.90;;;;;;5052815;28;20033;-71
2021/12/01 11:02:20;;;;;;;59.30;36.17;;;8.50;99.90;;;;;;5052375;28;20045;-70
2021/12/01 11:04:49;;;;;;;39.40;18.73;;;8.60;99.90;;;;;;5053677;28;20056;-72
2021/12/01 11:07:31;;;;;;;30.83;15.68;;;8.70;97.20;;;;;;5052055;28;20036;-67
2021/12/01 11:10:15;;;;;;;32.13;15.55;;;8.80;96.50;;;;;;5052611;28;20067;-70
2021/12/01 11:12:43;;;;;;;29.25;14.13;;;8.80;96.60;;;;;;5051970;28;20515;-71
2021/12/01 11:15:39;;;;;;;26.75;12.43;;;8.90;96.10;;;;;;5056738;28;20052;-70
2021/12/01 11:18:07;;;;;;;25.02;12.65;;;8.90;96.00;;;;;;5039847;28;20055;-68
2021/12/01 11:20:48;;;;;;;25.83;13.35;;;8.80;96.10;;;;;;5053084;28;20037;-71
2021/12/01 11:23:22;;;;;;;27.67;14.05;;;8.80;96.50;;;;;;5049688;28;20082;-70
2021/12/01 11:25:55;;;;;;;23.42;12.32;;;8.90;96.50;;;;;;5053209;28;20033;-70
2021/12/01 11:28:25;;;;;;;28.38;13.80;;;8.80;96.70;;;;;;5047561;28;20451;-71
2021/12/01 11:30:57;;;;;;;24.80;12.40;;;8.90;97.00;;;;;;5046033;28;20032;-73
2021/12/01 11:33:25;;;;;;;20.23;11.18;;;9.00;96.90;;;;;;5052234;28;20128;-72
2021/12/01 11:35:54;;;;;;;26.45;11.85;;;9.00;97.00;;;;;;5052054;28;20037;-72
2021/12/01 11:38:21;;;;;;;18.33;9.40;;;9.10;97.50;;;;;;5052049;28;20100;-68
2021/12/01 11:40:48;;;;;;;22.27;10.73;;;9.20;97.90;;;;;;5052631;28;20022;-75
2021/12/01 11:43:17;;;;;;;19.38;10.80;;;9.20;97.20;;;;;;5052269;28;20052;-72
2021/12/01 11:45:44;;;;;;;21.33;9.60;;;9.30;97.20;;;;;;5052063;28;20025;-74
2021/12/01 11:48:17;;;;;;;21.05;9.80;;;9.60;97.50;;;;;;5051318;28;20025;-72
2021/12/01 11:51:08;;;;;;;18.35;9.82;;;9.80;97.10;;;;;;5036591;28;20029;-73
2021/12/01 11:53:37;;;;;;;22.48;9.75;;;9.80;97.00;;;;;;5051249;28;20048;-74
2021/12/01 11:56:26;;;;;;;22.05;10.18;;;9.90;97.60;;;;;;5052676;28;20331;-73
2021/12/01 11:59:19;;;;;;;19.13;10.30;;;9.80;97.50;;;;;;5052624;28;20086;-72
2021/12/01 12:01:55;;;;;;;22.13;11.05;;;9.80;97.60;;;;;;5051024;28;20089;-73
2021/12/01 12:04:23;;;;;;;16.92;10.07;;;10.00;98.00;;;;;;5051229;28;20033;-72
2021/12/01 12:07:07;;;;;;;21.00;10.40;;;10.30;97.80;;;;;;5051795;28;20033;-73
2021/12/01 12:09:34;;;;;;;19.52;10.15;;;10.50;96.80;;;;;;5051790;28;20028;-73
2021/12/01 12:12:00;;;;;;;22.52;9.73;;;10.40;96.70;;;;;;5051257;28;20078;-71
2021/12/01 12:14:38;;;;;;;18.25;9.55;;;10.30;97.40;;;;;;5051452;28;20444;-73
2021/12/01 12:17:10;;;;;;;19.10;10.57;;;10.20;97.70;;;;;;5052015;28;20022;-73
2021/12/01 12:19:54;;;;;;;18.17;9.68;;;10.20;97.70;;;;;;5051484;28;20029;-73
2021/12/01 12:22:26;;;;;;;;;;;10.10;98.10;;;;;;5051618;28;20029;-72
2021/12/01 12:24:54;;;;;;;21.67;10.50;;;10.00;98.00;;;;;;5051133;28;20373;-73
2021/12/01 12:27:44;;;;;;;20.17;9.55;;;10.10;98.70;;;;;;5051429;28;20029;-71
2021/12/01 12:30:31;;;;;;;22.40;11.25;;;10.20;98.40;;;;;;5051624;28;20051;-71
2021/12/01 12:33:17;;;;;;;22.38;10.77;;;10.20;98.20;;;;;;5033084;28;20045;-70
2021/12/01 12:35:53;;;;;;;25.15;11.27;;;10.40;98.10;;;;;;5054207;28;20049;-71
2021/12/01 12:38:26;;;;;;;24.55;12.05;;;10.40;98.50;;;;;;5045038;28;20116;-71
2021/12/01 12:41:08;;;;;;;27.08;12.73;;;10.40;98.40;;;;;;5044424;28;20032;-71
2021/12/01 12:43:35;;;;;;;32.10;16.52;;;10.40;98.40;;;;;;5046598;28;20518;-71
2021/12/01 12:46:19;;;;;;;25.40;13.20;;;10.30;98.50;;;;;;5044646;28;20044;-71
2021/12/01 12:48:45;;;;;;;22.63;12.63;;;10.40;99.20;;;;;;5042259;28;20589;-70
2021/12/01 12:51:11;;;;;;;30.25;14.23;;;10.40;99.30;;;;;;5035619;28;20119;-70